UMMS/MSQ METAR and TAF weather

Enter ICAO airport designator
Station Type Date Time Source
UMMS METAR 2020/04/05 19:30 UTC NOAA

UMMS 051930Z 25001MPS CAVOK 01/M05 Q1033 R31R/CLRD// R31L/////// NOSIG


Station Type Date Time Source
UMMS Decoded METAR 2020/04/05 19:30 UTC NOAA

Minsk, Belarus (UMMS) 53-56N 027-38E 231M
Apr 05, 2020 - 03:30 PM EDT / 2020.04.05 1930 UTC
Wind: from the WSW (250 degrees) at 2 MPH (2 KT):0
Visibility: greater than 7 mile(s):0
Temperature: 33 F (1 C)
Dew Point: 23 F (-5 C)
Relative Humidity: 64%
Pressure (altimeter): 30.50 in. Hg (1033 hPa)
ob: UMMS 051930Z 25001MPS CAVOK 01/M05 Q1033 R31R/CLRD// R31L/////// NOSIG
cycle: 19

Station Type Date Time Source
UMMS TAF 2020/04/05 18:21 UTC NOAA

TAF TAF UMMS 051702Z 0518/0618 30006MPS 8000 SCT020 TX13/0612Z TNM02/0603Z
TEMPO 0520/0606 1200 BCFG BR SCT003
TEMPO 0608/0615 27007G12MPS

Example: see airport list